createdAt,value
2019-04-30T00:02:11.404Z,9.70
2019-04-30T00:04:40.458Z,9.60
2019-04-30T00:07:05.622Z,9.70
2019-04-30T00:09:30.482Z,9.60
2019-04-30T00:12:01.325Z,9.60
2019-04-30T00:14:27.724Z,9.60
2019-04-30T00:16:52.281Z,9.60
2019-04-30T00:19:19.881Z,9.60
2019-04-30T00:21:50.259Z,9.60
2019-04-30T00:24:11.359Z,9.60
2019-04-30T00:26:39.859Z,9.60
2019-04-30T00:29:05.118Z,9.50
2019-04-30T00:31:30.439Z,9.60
2019-04-30T00:34:01.153Z,9.50
2019-04-30T00:36:28.922Z,9.50
2019-04-30T00:38:49.260Z,9.60
2019-04-30T00:41:15.573Z,9.60
2019-04-30T00:43:46.456Z,9.50
2019-04-30T00:46:07.305Z,9.50
2019-04-30T00:48:33.304Z,9.50
2019-04-30T00:51:00.036Z,9.50
2019-04-30T00:53:26.750Z,9.50
2019-04-30T00:55:52.795Z,9.50
2019-04-30T00:58:24.852Z,9.50
2019-04-30T01:00:45.469Z,9.50
2019-04-30T01:03:10.993Z,9.50
2019-04-30T01:05:39.545Z,9.50
2019-04-30T01:08:04.955Z,9.40
2019-04-30T01:10:30.580Z,9.40
2019-04-30T01:13:01.857Z,9.40
2019-04-30T01:15:22.617Z,9.40
2019-04-30T01:17:51.074Z,9.30
2019-04-30T01:20:14.670Z,9.30
2019-04-30T01:22:40.673Z,9.40
2019-04-30T01:25:08.931Z,9.30
2019-04-30T01:27:32.779Z,9.40
2019-04-30T01:29:58.840Z,9.40
2019-04-30T01:32:28.170Z,9.40
2019-04-30T01:34:54.021Z,9.40
2019-04-30T01:37:24.697Z,9.40
2019-04-30T01:39:45.182Z,9.40
2019-04-30T01:42:11.563Z,9.40
2019-04-30T01:44:39.108Z,9.40
2019-04-30T01:47:03.535Z,9.40
2019-04-30T01:49:41.551Z,9.20
2019-04-30T01:52:00.496Z,9.50
2019-04-30T01:54:24.576Z,9.30
2019-04-30T01:56:51.409Z,9.30
2019-04-30T01:59:19.053Z,9.30
2019-04-30T02:01:43.494Z,9.30
2019-04-30T02:04:09.702Z,9.30
2019-04-30T02:06:35.704Z,9.30
2019-04-30T02:09:02.431Z,9.30
2019-04-30T02:11:28.873Z,9.30
2019-04-30T02:13:54.480Z,9.30
2019-04-30T02:16:21.085Z,9.30
2019-04-30T02:18:46.529Z,9.30
2019-04-30T02:21:13.297Z,9.20
2019-04-30T02:23:39.310Z,9.20
2019-04-30T02:26:05.340Z,9.20
2019-04-30T02:28:32.097Z,9.20
2019-04-30T02:31:00.224Z,9.20
2019-04-30T02:33:24.146Z,9.20
2019-04-30T02:35:50.233Z,9.20
2019-04-30T02:38:16.266Z,9.20
2019-04-30T02:40:42.769Z,9.10
2019-04-30T02:43:09.331Z,9.10
2019-04-30T02:45:35.294Z,9.10
2019-04-30T02:48:01.510Z,9.10
2019-04-30T02:50:29.389Z,9.20
2019-04-30T02:52:53.787Z,9.20
2019-04-30T02:55:19.803Z,9.20
2019-04-30T02:57:45.840Z,9.20
2019-04-30T03:00:11.839Z,9.20
2019-04-30T03:02:39.421Z,9.20
2019-04-30T03:05:05.346Z,9.10
2019-04-30T03:07:31.366Z,9.10
2019-04-30T03:09:59.574Z,9.10
2019-04-30T03:12:23.541Z,9.10
2019-04-30T03:14:50.540Z,9.10
2019-04-30T03:17:16.646Z,9.10
2019-04-30T03:19:42.712Z,9.10
2019-04-30T03:22:10.193Z,9.00
2019-04-30T03:24:34.818Z,9.00
2019-04-30T03:27:00.892Z,9.10
2019-04-30T03:29:30.146Z,9.00
2019-04-30T03:31:54.077Z,8.90
2019-04-30T03:34:26.034Z,8.90
2019-04-30T03:36:50.367Z,9.00
2019-04-30T03:39:14.365Z,8.90
2019-04-30T03:41:41.265Z,8.90
2019-04-30T03:44:20.784Z,8.90
2019-04-30T03:46:32.545Z,8.90
2019-04-30T03:49:00.206Z,8.90
2019-04-30T03:51:24.600Z,8.90
2019-04-30T03:53:51.832Z,8.90
2019-04-30T03:56:20.060Z,8.90
2019-04-30T03:58:46.713Z,9.00
2019-04-30T04:01:12.825Z,8.90
2019-04-30T04:03:42.032Z,9.00
2019-04-30T04:06:04.866Z,8.90
2019-04-30T04:08:30.915Z,9.00
2019-04-30T04:11:00.508Z,8.90
2019-04-30T04:13:30.032Z,8.90
2019-04-30T04:15:55.681Z,8.90
2019-04-30T04:18:23.250Z,8.90
2019-04-30T04:20:55.110Z,8.80
2019-04-30T04:23:16.181Z,8.90
2019-04-30T04:25:49.847Z,8.90
2019-04-30T04:28:13.695Z,8.50
2019-04-30T04:30:42.913Z,8.90
2019-04-30T04:33:05.753Z,9.00
2019-04-30T04:35:32.145Z,9.00
2019-04-30T04:38:00.222Z,9.00
2019-04-30T04:40:24.260Z,9.00
2019-04-30T04:42:50.230Z,9.00
2019-04-30T04:45:16.232Z,9.00
2019-04-30T04:47:42.941Z,9.00
2019-04-30T04:50:10.316Z,9.00
2019-04-30T04:52:35.702Z,9.00
2019-04-30T04:55:01.735Z,9.00
2019-04-30T04:57:30.072Z,9.00
2019-04-30T04:59:53.852Z,9.00
2019-04-30T05:02:19.869Z,9.00
2019-04-30T05:04:45.904Z,9.10
2019-04-30T05:07:11.909Z,9.00
2019-04-30T05:09:39.670Z,9.10
2019-04-30T05:12:04.005Z,9.00
2019-04-30T05:14:30.026Z,9.00
2019-04-30T05:16:56.062Z,9.10
2019-04-30T05:19:22.327Z,9.00
2019-04-30T05:21:49.496Z,9.10
2019-04-30T05:24:14.411Z,9.10
2019-04-30T05:26:40.401Z,9.10
2019-04-30T05:29:06.397Z,9.10
2019-04-30T05:31:32.389Z,9.20
2019-04-30T05:33:58.707Z,9.20
2019-04-30T05:36:24.407Z,9.20
2019-04-30T05:38:50.383Z,9.20
2019-04-30T05:41:16.371Z,9.20
2019-04-30T05:43:42.355Z,9.10
2019-04-30T05:46:10.791Z,9.20
2019-04-30T05:48:35.171Z,9.30
2019-04-30T05:51:01.167Z,9.30
2019-04-30T05:53:28.658Z,9.30
2019-04-30T05:55:53.174Z,9.30
2019-04-30T05:58:19.999Z,9.40
2019-04-30T06:00:45.981Z,9.40
2019-04-30T06:03:11.958Z,9.30
2019-04-30T06:05:39.432Z,9.40
2019-04-30T06:08:04.747Z,9.40
2019-04-30T06:10:30.731Z,9.40
2019-04-30T06:12:56.703Z,9.50
2019-04-30T06:15:22.708Z,9.40
2019-04-30T06:17:59.704Z,9.50
2019-04-30T06:20:18.647Z,9.40
2019-04-30T06:22:41.507Z,9.40
2019-04-30T06:25:10.536Z,9.40
2019-04-30T06:27:33.541Z,9.50
2019-04-30T06:29:59.514Z,9.50
2019-04-30T06:32:25.536Z,9.50
2019-04-30T06:34:51.509Z,9.50
2019-04-30T06:37:19.451Z,9.60
2019-04-30T06:39:44.252Z,9.60
2019-04-30T06:42:12.857Z,9.60
2019-04-30T06:44:39.367Z,9.70
2019-04-30T06:47:02.366Z,9.70
2019-04-30T06:49:28.894Z,9.80
2019-04-30T06:51:54.439Z,9.80
2019-04-30T06:54:20.469Z,9.90
2019-04-30T06:56:48.403Z,9.80
2019-04-30T06:59:13.251Z,10.00
2019-04-30T07:01:39.257Z,10.00
2019-04-30T07:04:05.221Z,10.00
2019-04-30T07:06:36.850Z,10.00
2019-04-30T07:08:59.634Z,10.00
2019-04-30T07:11:24.477Z,10.00
2019-04-30T07:13:52.165Z,9.90
2019-04-30T07:16:18.856Z,9.90
2019-04-30T07:18:42.574Z,9.90
2019-04-30T07:21:08.801Z,9.90
2019-04-30T07:23:34.608Z,10.00
2019-04-30T07:26:00.569Z,10.10
2019-04-30T07:28:41.289Z,10.10
2019-04-30T07:31:07.576Z,10.20
2019-04-30T07:33:20.968Z,10.10
2019-04-30T07:35:45.424Z,10.20
2019-04-30T07:38:11.425Z,10.30
2019-04-30T07:40:39.001Z,10.20
2019-04-30T07:43:03.447Z,9.90
2019-04-30T07:45:32.175Z,10.30
2019-04-30T07:47:56.244Z,10.30
2019-04-30T07:50:22.971Z,10.50
2019-04-30T07:53:01.497Z,10.70
2019-04-30T07:55:14.317Z,10.80
2019-04-30T07:57:40.595Z,10.80
2019-04-30T08:00:06.347Z,11.00
2019-04-30T08:02:37.989Z,11.20
2019-04-30T08:04:59.898Z,11.30
2019-04-30T08:07:24.437Z,11.60
2019-04-30T08:09:50.491Z,11.60
2019-04-30T08:12:25.094Z,11.40
2019-04-30T08:14:43.284Z,11.60
2019-04-30T08:17:09.304Z,11.50
2019-04-30T08:19:35.295Z,11.90
2019-04-30T08:22:01.258Z,11.60
2019-04-30T08:24:29.212Z,12.00
2019-04-30T08:26:54.066Z,12.00
2019-04-30T08:29:20.091Z,12.10
2019-04-30T08:31:46.093Z,12.10
2019-04-30T08:34:12.115Z,11.90
2019-04-30T08:36:38.690Z,12.10
2019-04-30T08:39:04.164Z,12.20
2019-04-30T08:41:30.188Z,12.10
2019-04-30T08:43:56.200Z,12.90
2019-04-30T08:46:22.169Z,14.00
2019-04-30T08:48:51.748Z,15.00
2019-04-30T08:51:15.136Z,16.70
2019-04-30T08:53:41.373Z,16.70
2019-04-30T08:56:07.034Z,16.30
2019-04-30T08:58:33.760Z,15.40
2019-04-30T09:00:59.741Z,15.40
2019-04-30T09:03:25.748Z,15.10
2019-04-30T09:05:51.718Z,15.20
2019-04-30T09:08:19.360Z,15.40
2019-04-30T09:10:44.517Z,15.40
2019-04-30T09:13:10.505Z,15.20
2019-04-30T09:15:36.536Z,14.70
2019-04-30T09:18:06.395Z,15.20
2019-04-30T09:20:29.351Z,17.30
2019-04-30T09:22:55.324Z,17.20
2019-04-30T09:25:21.303Z,19.00
2019-04-30T09:27:48.790Z,20.50
2019-04-30T09:30:13.356Z,20.30
2019-04-30T09:32:39.313Z,20.30
2019-04-30T09:35:06.087Z,20.00
2019-04-30T09:37:32.120Z,19.90
2019-04-30T09:39:59.217Z,20.60
2019-04-30T09:42:25.834Z,21.00
2019-04-30T09:44:54.009Z,21.00
2019-04-30T09:47:20.035Z,19.70
2019-04-30T09:49:45.462Z,19.60
2019-04-30T09:52:11.684Z,19.50
2019-04-30T09:54:39.560Z,19.70
2019-04-30T09:57:03.681Z,20.90
2019-04-30T09:59:29.731Z,21.20
2019-04-30T10:01:55.756Z,21.30
2019-04-30T10:04:22.157Z,21.20
2019-04-30T10:06:49.956Z,21.10
2019-04-30T10:09:13.819Z,21.20
2019-04-30T10:11:40.043Z,20.60
2019-04-30T10:14:06.084Z,19.40
2019-04-30T10:16:32.878Z,18.40
2019-04-30T10:18:59.197Z,18.40
2019-04-30T10:21:24.972Z,18.10
2019-04-30T10:23:50.954Z,18.00
2019-04-30T10:26:17.698Z,18.20
2019-04-30T10:28:44.426Z,18.10
2019-04-30T10:31:10.417Z,18.00
2019-04-30T10:33:38.474Z,17.90
2019-04-30T10:36:02.710Z,17.20
2019-04-30T10:38:29.373Z,16.70
2019-04-30T10:40:54.758Z,17.20
2019-04-30T10:43:20.710Z,17.10
2019-04-30T10:45:48.421Z,17.10
2019-04-30T10:48:12.738Z,17.10
2019-04-30T10:50:40.931Z,16.80
2019-04-30T10:53:05.485Z,16.80
2019-04-30T10:55:32.208Z,17.00
2019-04-30T10:57:59.336Z,17.00
2019-04-30T11:00:24.254Z,17.30
2019-04-30T11:02:50.266Z,17.40
2019-04-30T11:05:16.245Z,17.40
2019-04-30T11:07:42.263Z,17.70
2019-04-30T11:10:08.749Z,17.70
2019-04-30T11:12:34.295Z,17.80
2019-04-30T11:15:01.008Z,17.70
2019-04-30T11:17:27.195Z,17.70
2019-04-30T11:19:53.256Z,17.90
2019-04-30T11:22:19.264Z,18.00
2019-04-30T11:24:56.512Z,17.70
2019-04-30T11:27:12.029Z,17.50
2019-04-30T11:29:39.241Z,17.60
2019-04-30T11:32:04.210Z,17.20
2019-04-30T11:34:30.070Z,17.20
2019-04-30T11:36:56.068Z,17.30
2019-04-30T11:39:22.781Z,17.20
2019-04-30T11:41:48.814Z,17.20
2019-04-30T11:44:27.767Z,17.50
2019-04-30T11:46:41.624Z,17.20
2019-04-30T11:49:09.566Z,17.10
2019-04-30T11:51:34.492Z,17.30
2019-04-30T11:54:00.494Z,17.30
2019-04-30T11:56:27.202Z,16.90
2019-04-30T11:58:53.233Z,16.90
2019-04-30T12:01:19.524Z,16.60
2019-04-30T12:03:45.304Z,16.60
2019-04-30T12:06:11.313Z,16.50
2019-04-30T12:08:39.263Z,16.60
2019-04-30T12:11:04.095Z,16.60
2019-04-30T12:13:30.849Z,16.20
2019-04-30T12:15:58.683Z,16.20
2019-04-30T12:18:22.898Z,16.50
2019-04-30T12:20:48.886Z,16.40
2019-04-30T12:23:15.643Z,16.10
2019-04-30T12:25:42.380Z,16.10
2019-04-30T12:28:09.546Z,16.10
2019-04-30T12:30:35.191Z,16.00
2019-04-30T12:33:01.324Z,15.90
2019-04-30T12:35:28.533Z,15.50
2019-04-30T12:37:54.983Z,15.50
2019-04-30T12:40:28.842Z,15.60
2019-04-30T12:42:48.638Z,15.60
2019-04-30T12:45:13.125Z,15.60
2019-04-30T12:47:39.876Z,15.70
2019-04-30T12:50:05.916Z,15.70
2019-04-30T12:52:31.916Z,15.60
2019-04-30T12:54:58.677Z,15.70
2019-04-30T12:57:24.672Z,15.70
2019-04-30T12:59:50.678Z,15.90
2019-04-30T13:02:16.677Z,15.80
2019-04-30T13:04:42.675Z,15.70
2019-04-30T13:07:10.675Z,15.60
2019-04-30T13:09:35.082Z,15.40
2019-04-30T13:12:01.534Z,15.50
2019-04-30T13:14:29.900Z,15.50
2019-04-30T13:16:53.647Z,15.50
2019-04-30T13:19:19.662Z,15.40
2019-04-30T13:21:45.672Z,15.50
2019-04-30T13:24:11.723Z,15.60
2019-04-30T13:26:39.517Z,15.60
2019-04-30T13:29:03.724Z,15.50
2019-04-30T13:31:30.430Z,15.40
2019-04-30T13:34:00.393Z,15.30
2019-04-30T13:36:22.472Z,15.30
2019-04-30T13:38:51.706Z,15.30
2019-04-30T13:41:14.521Z,15.10
2019-04-30T13:43:40.514Z,15.30
2019-04-30T13:46:08.515Z,15.30
2019-04-30T13:48:32.530Z,15.10
2019-04-30T13:50:59.283Z,15.00
2019-04-30T13:53:25.255Z,15.00
2019-04-30T13:55:51.266Z,15.00
2019-04-30T13:58:17.240Z,15.10
2019-04-30T14:00:43.237Z,15.10
2019-04-30T14:03:09.313Z,15.10
2019-04-30T14:05:35.329Z,15.10
2019-04-30T14:08:01.326Z,15.20
2019-04-30T14:10:29.337Z,15.10
2019-04-30T14:12:53.497Z,15.00
2019-04-30T14:15:19.528Z,15.20
2019-04-30T14:17:45.504Z,15.10
2019-04-30T14:20:11.521Z,15.00
2019-04-30T14:22:38.279Z,15.10
2019-04-30T14:25:05.017Z,15.10
2019-04-30T14:27:31.786Z,15.00
2019-04-30T14:29:59.340Z,15.00
2019-04-30T14:32:23.905Z,14.90
2019-04-30T14:34:50.709Z,14.90
2019-04-30T14:37:16.002Z,14.90
2019-04-30T14:39:42.107Z,14.80
2019-04-30T14:42:10.654Z,14.80
2019-04-30T14:44:35.355Z,14.80
2019-04-30T14:47:01.311Z,14.80
2019-04-30T14:49:27.822Z,14.70
2019-04-30T14:51:53.048Z,14.70
2019-04-30T14:54:19.989Z,14.70
2019-04-30T14:56:45.121Z,14.50
2019-04-30T14:59:11.119Z,14.50
2019-04-30T15:01:37.168Z,14.50
2019-04-30T15:04:03.143Z,14.50
2019-04-30T15:06:29.924Z,14.50
2019-04-30T15:08:55.922Z,14.40
2019-04-30T15:11:21.969Z,14.40
2019-04-30T15:13:49.430Z,14.30
2019-04-30T15:16:14.154Z,14.20
2019-04-30T15:18:40.158Z,14.20
2019-04-30T15:21:06.971Z,14.20
2019-04-30T15:23:32.977Z,14.20
2019-04-30T15:25:59.736Z,14.40
2019-04-30T15:28:32.311Z,14.40
2019-04-30T15:30:51.798Z,14.30
2019-04-30T15:33:17.786Z,14.30
2019-04-30T15:35:44.489Z,14.10
2019-04-30T15:38:10.503Z,14.00
2019-04-30T15:40:36.552Z,14.10
2019-04-30T15:43:02.581Z,14.20
2019-04-30T15:45:29.221Z,14.00
2019-04-30T15:47:54.650Z,14.00
2019-04-30T15:50:21.405Z,13.80
2019-04-30T15:52:48.618Z,13.80
2019-04-30T15:55:14.244Z,13.70
2019-04-30T15:57:40.303Z,13.70
2019-04-30T16:00:06.328Z,13.60
2019-04-30T16:02:32.437Z,13.70
2019-04-30T16:04:59.880Z,13.70
2019-04-30T16:07:24.511Z,13.60
2019-04-30T16:09:50.484Z,13.50
2019-04-30T16:12:20.065Z,13.40
2019-04-30T16:14:42.598Z,13.40
2019-04-30T16:17:08.611Z,13.40
2019-04-30T16:19:34.594Z,13.50
2019-04-30T16:22:00.611Z,13.40
2019-04-30T16:24:28.698Z,13.20
2019-04-30T16:26:53.392Z,13.20
2019-04-30T16:29:19.454Z,13.20
2019-04-30T16:31:45.461Z,13.10
2019-04-30T16:34:11.496Z,13.10
2019-04-30T16:36:39.010Z,13.00
2019-04-30T16:39:04.337Z,12.90
2019-04-30T16:41:31.889Z,12.90
2019-04-30T16:43:56.435Z,12.80
2019-04-30T16:46:22.445Z,12.80
2019-04-30T16:48:49.278Z,12.80
2019-04-30T16:51:14.575Z,12.80
2019-04-30T16:53:40.672Z,12.80
2019-04-30T16:56:08.489Z,12.90
2019-04-30T16:58:32.800Z,12.80
2019-04-30T17:00:59.403Z,12.70
2019-04-30T17:03:25.706Z,12.40
2019-04-30T17:05:51.700Z,12.30
2019-04-30T17:08:19.330Z,12.30
2019-04-30T17:10:43.834Z,12.10
2019-04-30T17:13:09.902Z,12.10
2019-04-30T17:15:35.957Z,12.10
2019-04-30T17:18:03.080Z,11.90
2019-04-30T17:20:34.789Z,11.90
2019-04-30T17:23:00.781Z,11.90
2019-04-30T17:25:26.807Z,11.90
2019-04-30T17:27:52.808Z,11.90
2019-04-30T17:30:19.350Z,11.90
2019-04-30T17:32:45.639Z,11.70
2019-04-30T17:35:12.419Z,11.60
2019-04-30T17:37:38.412Z,11.60
2019-04-30T17:40:04.456Z,11.50
2019-04-30T17:42:30.486Z,11.40
2019-04-30T17:44:58.873Z,11.40
2019-04-30T17:47:22.592Z,11.40
2019-04-30T17:49:50.821Z,11.40
2019-04-30T17:52:14.739Z,11.40
2019-04-30T17:54:40.749Z,11.40
2019-04-30T17:57:10.482Z,11.40
2019-04-30T17:59:33.587Z,11.40
2019-04-30T18:01:59.723Z,11.40
2019-04-30T18:04:25.745Z,11.30
2019-04-30T18:06:51.741Z,11.30
2019-04-30T18:09:19.086Z,11.20
2019-04-30T18:11:44.540Z,11.10
2019-04-30T18:14:10.577Z,11.10
2019-04-30T18:16:38.520Z,11.10
2019-04-30T18:19:02.619Z,11.10
2019-04-30T18:21:28.651Z,11.20
2019-04-30T18:23:54.653Z,11.10
2019-04-30T18:26:20.661Z,11.10
2019-04-30T18:28:46.646Z,11.00
2019-04-30T18:31:12.678Z,11.00
2019-04-30T18:33:39.428Z,10.80
2019-04-30T18:36:05.475Z,10.80
2019-04-30T18:38:31.476Z,10.80
2019-04-30T18:40:59.366Z,10.80
2019-04-30T18:43:23.561Z,10.70
2019-04-30T18:45:49.591Z,10.80
2019-04-30T18:48:15.585Z,10.70
2019-04-30T18:50:41.623Z,10.70
2019-04-30T18:53:08.698Z,10.80
2019-04-30T18:55:33.738Z,10.80
2019-04-30T18:58:01.467Z,10.80
2019-04-30T19:00:25.820Z,10.70
2019-04-30T19:02:51.836Z,10.70
2019-04-30T19:05:17.840Z,10.80
2019-04-30T19:07:44.599Z,10.70
2019-04-30T19:10:10.595Z,10.70
2019-04-30T19:12:38.967Z,10.70
2019-04-30T19:15:03.422Z,10.70
2019-04-30T19:17:29.571Z,10.70
2019-04-30T19:19:55.492Z,10.60
2019-04-30T19:22:21.480Z,10.60
2019-04-30T19:24:56.092Z,10.60
2019-04-30T19:27:13.628Z,10.50
2019-04-30T19:29:39.623Z,10.50
2019-04-30T19:32:05.687Z,10.40
2019-04-30T19:34:31.797Z,10.40
2019-04-30T19:36:58.599Z,10.50
2019-04-30T19:39:23.851Z,10.40
2019-04-30T19:41:49.877Z,10.50
2019-04-30T19:44:15.881Z,10.50
2019-04-30T19:46:41.924Z,10.50
2019-04-30T19:49:09.708Z,10.30
2019-04-30T19:51:34.775Z,10.40
2019-04-30T19:54:00.806Z,10.30
2019-04-30T19:56:26.965Z,10.30
2019-04-30T19:59:02.059Z,10.40
2019-04-30T20:01:19.023Z,10.40
2019-04-30T20:03:45.060Z,10.30
2019-04-30T20:06:11.787Z,10.40
2019-04-30T20:08:38.748Z,10.40
2019-04-30T20:11:03.886Z,10.40
2019-04-30T20:13:36.594Z,10.40
2019-04-30T20:15:55.944Z,10.40
2019-04-30T20:18:21.981Z,10.40
2019-04-30T20:20:51.626Z,10.40
2019-04-30T20:23:14.807Z,10.40
2019-04-30T20:25:40.779Z,10.40
2019-04-30T20:28:06.805Z,10.40
2019-04-30T20:30:32.786Z,10.40
2019-04-30T20:32:59.450Z,10.40
2019-04-30T20:35:24.819Z,10.30
2019-04-30T20:37:50.830Z,10.20
2019-04-30T20:40:18.491Z,10.20
2019-04-30T20:42:42.893Z,10.20
2019-04-30T20:45:09.172Z,10.20
2019-04-30T20:47:35.028Z,10.20
2019-04-30T20:50:01.084Z,10.20
2019-04-30T20:52:28.948Z,10.10
2019-04-30T20:54:53.186Z,10.10
2019-04-30T20:57:19.966Z,10.10
2019-04-30T20:59:45.238Z,10.10
2019-04-30T21:02:11.217Z,10.10
2019-04-30T21:04:37.253Z,10.10
2019-04-30T21:07:03.253Z,10.20
2019-04-30T21:09:29.308Z,10.20
2019-04-30T21:11:55.313Z,10.20
2019-04-30T21:14:21.360Z,10.20
2019-04-30T21:16:47.397Z,10.10
2019-04-30T21:19:13.484Z,10.10
2019-04-30T21:21:39.525Z,10.10
2019-04-30T21:24:05.549Z,10.10
2019-04-30T21:26:31.565Z,10.10
2019-04-30T21:29:10.589Z,10.10
2019-04-30T21:31:24.412Z,10.10
2019-04-30T21:33:50.447Z,10.10
2019-04-30T21:36:18.903Z,10.20
2019-04-30T21:38:43.311Z,10.20
2019-04-30T21:41:09.955Z,10.10
2019-04-30T21:43:35.392Z,10.10
2019-04-30T21:46:01.418Z,10.10
2019-04-30T21:48:28.776Z,10.10
2019-04-30T21:50:53.435Z,10.10
2019-04-30T21:53:19.639Z,10.10
2019-04-30T21:55:49.550Z,10.10
2019-04-30T21:58:13.854Z,10.10
2019-04-30T22:00:40.876Z,10.10
2019-04-30T22:03:06.864Z,10.10
2019-04-30T22:05:32.944Z,10.10
2019-04-30T22:07:59.775Z,10.10
2019-04-30T22:10:25.870Z,10.10
2019-04-30T22:12:52.627Z,10.00
2019-04-30T22:15:18.676Z,10.00
2019-04-30T22:17:44.675Z,10.00
2019-04-30T22:20:11.449Z,10.10
2019-04-30T22:22:39.080Z,10.10
2019-04-30T22:25:03.597Z,10.00
2019-04-30T22:27:29.616Z,10.10
2019-04-30T22:29:55.668Z,10.10
2019-04-30T22:32:21.662Z,10.10
2019-04-30T22:34:47.688Z,10.00
2019-04-30T22:37:13.719Z,10.10
2019-04-30T22:39:39.740Z,10.10
2019-04-30T22:42:05.739Z,10.00
2019-04-30T22:44:31.762Z,10.00
2019-04-30T22:47:00.272Z,10.00
2019-04-30T22:49:23.834Z,10.00
2019-04-30T22:51:49.840Z,10.00
2019-04-30T22:54:15.815Z,10.10
2019-04-30T22:56:41.830Z,10.00
2019-04-30T22:59:07.831Z,10.00
2019-04-30T23:01:33.869Z,10.00
2019-04-30T23:03:59.924Z,9.90
2019-04-30T23:06:26.695Z,9.90
2019-04-30T23:08:52.703Z,9.90
2019-04-30T23:11:19.481Z,10.00
2019-04-30T23:13:45.486Z,10.00
2019-04-30T23:16:11.520Z,10.00
2019-04-30T23:18:37.499Z,10.00
2019-04-30T23:21:03.531Z,10.00
2019-04-30T23:23:29.500Z,10.00
2019-04-30T23:25:55.510Z,10.00
2019-04-30T23:28:21.501Z,10.00
2019-04-30T23:30:47.525Z,10.00
2019-04-30T23:33:13.507Z,10.00
2019-04-30T23:35:39.520Z,10.10
2019-04-30T23:38:05.538Z,10.10
2019-04-30T23:40:31.522Z,10.10
2019-04-30T23:42:58.276Z,10.10
2019-04-30T23:45:24.999Z,10.10
2019-04-30T23:47:51.781Z,10.10
2019-04-30T23:50:17.795Z,10.10
2019-04-30T23:52:43.910Z,10.10
2019-04-30T23:55:09.923Z,10.10
2019-04-30T23:57:35.958Z,10.10
